sensor_id;sensor_type;location;lat;lon;timestamp;temperature;humidity
16060;DHT22;8134;49.552;7.632;2023-10-08T15:49:38;21.60;99.90
16060;DHT22;8134;49.552;7.632;2023-10-08T15:52:04;21.70;99.90
16060;DHT22;8134;49.552;7.632;2023-10-08T15:54:30;21.60;99.90
16060;DHT22;8134;49.552;7.632;2023-10-08T15:56:55;21.50;99.90
16060;DHT22;8134;49.552;7.632;2023-10-08T16:05:31;21.30;99.90
16060;DHT22;8134;49.552;7.632;2023-10-08T16:07:57;21.20;99.90
16060;DHT22;8134;49.552;7.632;2023-10-08T16:10:25;21.20;99.90
16060;DHT22;8134;49.552;7.632;2023-10-08T16:12:50;21.10;99.90
16060;DHT22;8134;49.552;7.632;2023-10-08T16:15:16;21.10;99.90
16060;DHT22;8134;49.552;7.632;2023-10-08T16:17:43;21.00;99.90
16060;DHT22;8134;49.552;7.632;2023-10-08T16:20:09;20.90;99.90
16060;DHT22;8134;49.552;7.632;2023-10-08T16:28:52;20.70;99.90
16060;DHT22;8134;49.552;7.632;2023-10-08T16:31:17;20.60;99.90
16060;DHT22;8134;49.552;7.632;2023-10-08T16:33:43;20.50;99.90
16060;DHT22;8134;49.552;7.632;2023-10-08T16:42:01;20.20;99.90
16060;DHT22;8134;49.552;7.632;2023-10-08T16:44:29;20.00;99.90
16060;DHT22;8134;49.552;7.632;2023-10-08T16:46:55;19.90;99.90
16060;DHT22;8134;49.552;7.632;2023-10-08T16:52:23;19.80;99.90
16060;DHT22;8134;49.552;7.632;2023-10-08T16:54:50;19.80;99.90
16060;DHT22;8134;49.552;7.632;2023-10-08T16:57:15;19.70;99.90
16060;DHT22;8134;49.552;7.632;2023-10-08T16:59:41;19.50;99.90
16060;DHT22;8134;49.552;7.632;2023-10-08T17:02:08;19.40;99.90
16060;DHT22;8134;49.552;7.632;2023-10-08T17:04:33;19.30;99.90
16060;DHT22;8134;49.552;7.632;2023-10-08T17:06:59;19.30;99.90
16060;DHT22;8134;49.552;7.632;2023-10-08T17:09:24;19.30;99.90
16060;DHT22;8134;49.552;7.632;2023-10-08T17:11:52;19.30;99.90
16060;DHT22;8134;49.552;7.632;2023-10-08T17:14:18;19.30;99.90
16060;DHT22;8134;49.552;7.632;2023-10-08T17:16:43;19.30;99.90
16060;DHT22;8134;49.552;7.632;2023-10-08T17:19:09;19.20;99.90
16060;DHT22;8134;49.552;7.632;2023-10-08T17:21:34;19.10;99.90
16060;DHT22;8134;49.552;7.632;2023-10-08T17:24:00;19.10;99.90
16060;DHT22;8134;49.552;7.632;2023-10-08T17:26:26;19.00;99.90
16060;DHT22;8134;49.552;7.632;2023-10-08T17:28:51;19.00;99.90
16060;DHT22;8134;49.552;7.632;2023-10-08T17:31:17;18.90;99.90
16060;DHT22;8134;49.552;7.632;2023-10-08T17:33:45;18.90;99.90
16060;DHT22;8134;49.552;7.632;2023-10-08T17:36:13;18.80;99.90
16060;DHT22;8134;49.552;7.632;2023-10-08T17:38:39;18.70;99.90
16060;DHT22;8134;49.552;7.632;2023-10-08T17:41:05;18.70;99.90
16060;DHT22;8134;49.552;7.632;2023-10-08T17:43:31;18.60;99.90
16060;DHT22;8134;49.552;7.632;2023-10-08T17:45:56;18.60;99.90
16060;DHT22;8134;49.552;7.632;2023-10-08T17:48:22;18.50;99.90
16060;DHT22;8134;49.552;7.632;2023-10-08T17:50:51;18.40;99.90
16060;DHT22;8134;49.552;7.632;2023-10-08T17:53:17;18.30;99.90
16060;DHT22;8134;49.552;7.632;2023-10-08T17:55:45;18.20;99.90
16060;DHT22;8134;49.552;7.632;2023-10-08T17:58:11;18.20;99.90
16060;DHT22;8134;49.552;7.632;2023-10-08T18:00:36;18.30;99.90
16060;DHT22;8134;49.552;7.632;2023-10-08T18:03:06;18.20;99.90
16060;DHT22;8134;49.552;7.632;2023-10-08T18:05:32;18.20;99.90
16060;DHT22;8134;49.552;7.632;2023-10-08T18:07:57;18.10;99.90
16060;DHT22;8134;49.552;7.632;2023-10-08T18:10:23;18.10;99.90
16060;DHT22;8134;49.552;7.632;2023-10-08T18:12:49;18.00;99.90
16060;DHT22;8134;49.552;7.632;2023-10-08T18:15:18;18.00;99.90
16060;DHT22;8134;49.552;7.632;2023-10-08T18:17:44;17.90;99.90
16060;DHT22;8134;49.552;7.632;2023-10-08T18:20:10;17.90;99.90
16060;DHT22;8134;49.552;7.632;2023-10-08T18:22:38;17.90;99.90
16060;DHT22;8134;49.552;7.632;2023-10-08T18:25:05;17.90;99.90
16060;DHT22;8134;49.552;7.632;2023-10-08T18:27:30;17.80;99.90
16060;DHT22;8134;49.552;7.632;2023-10-08T18:29:59;17.80;99.90
16060;DHT22;8134;49.552;7.632;2023-10-08T18:32:25;17.70;99.90
16060;DHT22;8134;49.552;7.632;2023-10-08T18:34:51;17.70;99.90
16060;DHT22;8134;49.552;7.632;2023-10-08T18:37:23;17.60;99.90
16060;DHT22;8134;49.552;7.632;2023-10-08T18:39:49;17.60;99.90
16060;DHT22;8134;49.552;7.632;2023-10-08T18:42:21;17.50;99.90
16060;DHT22;8134;49.552;7.632;2023-10-08T18:44:49;17.50;99.90
16060;DHT22;8134;49.552;7.632;2023-10-08T18:47:15;17.50;99.90
16060;DHT22;8134;49.552;7.632;2023-10-08T18:49:40;17.40;99.90
16060;DHT22;8134;49.552;7.632;2023-10-08T18:52:18;17.40;99.90
16060;DHT22;8134;49.552;7.632;2023-10-08T18:55:02;17.40;99.90
16060;DHT22;8134;49.552;7.632;2023-10-08T18:57:31;17.30;99.90
16060;DHT22;8134;49.552;7.632;2023-10-08T18:59:57;17.30;99.90
16060;DHT22;8134;49.552;7.632;2023-10-08T19:02:23;17.30;99.90
16060;DHT22;8134;49.552;7.632;2023-10-08T19:04:49;17.30;99.90
16060;DHT22;8134;49.552;7.632;2023-10-08T19:16:01;17.10;99.90
16060;DHT22;8134;49.552;7.632;2023-10-08T19:27:20;16.90;99.90
16060;DHT22;8134;49.552;7.632;2023-10-08T19:45:10;16.50;99.90
16060;DHT22;8134;49.552;7.632;2023-10-08T19:50:45;16.50;99.90
16060;DHT22;8134;49.552;7.632;2023-10-08T19:56:19;16.60;99.90
16060;DHT22;8134;49.552;7.632;2023-10-08T20:42:36;16.00;99.90
16060;DHT22;8134;49.552;7.632;2023-10-08T20:48:08;15.90;99.90
16060;DHT22;8134;49.552;7.632;2023-10-08T20:50:38;15.90;99.90
16060;DHT22;8134;49.552;7.632;2023-10-08T20:59:13;15.70;99.90
16060;DHT22;8134;49.552;7.632;2023-10-08T21:01:39;15.70;99.90
16060;DHT22;8134;49.552;7.632;2023-10-08T21:04:04;15.60;99.90
16060;DHT22;8134;49.552;7.632;2023-10-08T21:12:39;15.70;99.90
16060;DHT22;8134;49.552;7.632;2023-10-08T21:15:06;15.60;99.90
16060;DHT22;8134;49.552;7.632;2023-10-08T21:23:42;15.50;99.90
16060;DHT22;8134;49.552;7.632;2023-10-08T21:26:07;15.40;99.90
16060;DHT22;8134;49.552;7.632;2023-10-08T21:28:33;15.40;99.90
16060;DHT22;8134;49.552;7.632;2023-10-08T21:31:05;15.40;99.90
16060;DHT22;8134;49.552;7.632;2023-10-08T21:36:34;15.40;99.90
16060;DHT22;8134;49.552;7.632;2023-10-08T21:39:00;15.40;99.90
16060;DHT22;8134;49.552;7.632;2023-10-08T21:41:25;15.30;99.90
16060;DHT22;8134;49.552;7.632;2023-10-08T21:43:51;15.30;99.90
16060;DHT22;8134;49.552;7.632;2023-10-08T21:52:26;15.20;99.90
16060;DHT22;8134;49.552;7.632;2023-10-08T21:54:53;15.20;99.90
16060;DHT22;8134;49.552;7.632;2023-10-08T21:57:19;15.20;99.90
16060;DHT22;8134;49.552;7.632;2023-10-08T22:05:17;15.20;99.90
16060;DHT22;8134;49.552;7.632;2023-10-08T22:07:44;15.20;99.90
16060;DHT22;8134;49.552;7.632;2023-10-08T22:16:19;15.10;99.90
16060;DHT22;8134;49.552;7.632;2023-10-08T22:18:46;15.10;99.90
16060;DHT22;8134;49.552;7.632;2023-10-08T22:21:17;15.10;99.90
16060;DHT22;8134;49.552;7.632;2023-10-08T22:29:53;15.00;99.90
16060;DHT22;8134;49.552;7.632;2023-10-08T22:32:20;15.00;99.90
16060;DHT22;8134;49.552;7.632;2023-10-08T22:34:49;14.90;99.90
16060;DHT22;8134;49.552;7.632;2023-10-08T22:43:29;14.80;99.90
16060;DHT22;8134;49.552;7.632;2023-10-08T22:46:04;14.80;99.90
16060;DHT22;8134;49.552;7.632;2023-10-08T22:48:34;14.70;99.90
16060;DHT22;8134;49.552;7.632;2023-10-08T22:57:17;14.70;99.90
16060;DHT22;8134;49.552;7.632;2023-10-08T22:59:47;14.60;99.90
16060;DHT22;8134;49.552;7.632;2023-10-08T23:02:12;14.60;99.90
16060;DHT22;8134;49.552;7.632;2023-10-08T23:04:39;14.60;99.90
16060;DHT22;8134;49.552;7.632;2023-10-08T23:07:06;14.50;99.90
16060;DHT22;8134;49.552;7.632;2023-10-08T23:15:30;14.50;99.90
16060;DHT22;8134;49.552;7.632;2023-10-08T23:17:58;14.40;99.90
16060;DHT22;8134;49.552;7.632;2023-10-08T23:20:24;14.40;99.90
16060;DHT22;8134;49.552;7.632;2023-10-08T23:28:59;14.40;99.90
16060;DHT22;8134;49.552;7.632;2023-10-08T23:31:25;14.40;99.90
16060;DHT22;8134;49.552;7.632;2023-10-08T23:33:50;14.40;99.90
16060;DHT22;8134;49.552;7.632;2023-10-08T23:36:16;14.40;99.90
16060;DHT22;8134;49.552;7.632;2023-10-08T23:44:34;14.40;99.90
16060;DHT22;8134;49.552;7.632;2023-10-08T23:53:09;14.20;99.90
16060;DHT22;8134;49.552;7.632;2023-10-08T23:55:47;14.20;99.90
16060;DHT22;8134;49.552;7.632;2023-10-08T23:58:31;14.20;99.90
